createdAt,value
2019-05-21T00:02:02.602Z,5.47
2019-05-21T00:04:32.750Z,4.40
2019-05-21T00:07:02.823Z,5.03
2019-05-21T00:09:32.922Z,4.90
2019-05-21T00:12:03.159Z,4.73
2019-05-21T00:14:33.265Z,4.80
2019-05-21T00:17:03.329Z,4.97
2019-05-21T00:19:33.394Z,4.27
2019-05-21T00:22:03.453Z,6.87
2019-05-21T00:24:33.582Z,9.20
2019-05-21T00:27:03.694Z,5.10
2019-05-21T00:30:09.691Z,6.60
2019-05-21T00:33:15.764Z,5.93
2019-05-21T00:36:23.103Z,4.40
2019-05-21T00:39:29.036Z,7.17
2019-05-21T00:42:03.295Z,8.13
2019-05-21T00:44:44.023Z,7.50
2019-05-21T00:47:14.180Z,6.23
2019-05-21T00:49:44.304Z,6.43
2019-05-21T00:52:14.368Z,4.97
2019-05-21T00:54:44.484Z,5.77
2019-05-21T00:57:14.558Z,6.20
2019-05-21T00:59:44.666Z,6.73
2019-05-21T01:02:15.438Z,7.33
2019-05-21T01:04:59.670Z,7.50
2019-05-21T01:07:17.396Z,8.33
2019-05-21T01:09:47.479Z,5.67
2019-05-21T01:12:17.561Z,6.03
2019-05-21T01:14:47.658Z,5.67
2019-05-21T01:17:17.734Z,7.30
2019-05-21T01:19:47.873Z,6.83
2019-05-21T01:22:17.994Z,7.30
2019-05-21T01:24:48.300Z,11.17
2019-05-21T01:27:18.429Z,8.80
2019-05-21T01:29:50.545Z,6.70
2019-05-21T01:32:51.785Z,6.00
2019-05-21T01:35:21.876Z,6.57
2019-05-21T01:37:52.717Z,8.83
2019-05-21T01:40:23.029Z,6.27
2019-05-21T01:42:56.312Z,9.57
2019-05-21T01:45:26.569Z,10.00
2019-05-21T01:47:56.702Z,7.43
2019-05-21T01:50:26.922Z,7.50
2019-05-21T01:52:59.928Z,8.50
2019-05-21T01:55:30.027Z,11.93
2019-05-21T01:58:00.215Z,10.13
2019-05-21T02:00:30.307Z,10.80
2019-05-21T02:03:00.541Z,8.50
2019-05-21T02:05:33.315Z,10.97
2019-05-21T02:08:02.721Z,12.67
2019-05-21T02:10:32.857Z,8.70
2019-05-21T02:13:02.953Z,7.77
2019-05-21T02:15:33.042Z,8.93
2019-05-21T02:18:03.118Z,8.77
2019-05-21T02:20:33.283Z,10.93
2019-05-21T02:23:03.463Z,12.97
2019-05-21T02:25:33.555Z,8.87
2019-05-21T02:28:03.652Z,12.10
2019-05-21T02:30:33.717Z,9.17
2019-05-21T02:33:03.873Z,11.23
2019-05-21T02:35:52.383Z,14.43
2019-05-21T02:38:05.827Z,15.73
2019-05-21T02:40:35.932Z,12.57
2019-05-21T02:43:06.208Z,17.00
2019-05-21T02:45:36.323Z,11.67
2019-05-21T02:48:06.436Z,17.33
2019-05-21T02:50:36.566Z,17.30
2019-05-21T02:53:06.689Z,13.67
2019-05-21T02:55:36.747Z,15.80
2019-05-21T02:58:07.026Z,14.07
2019-05-21T03:00:54.858Z,15.60
2019-05-21T03:03:27.790Z,15.10
2019-05-21T03:06:13.100Z,13.57
2019-05-21T03:08:29.687Z,15.67
2019-05-21T03:10:59.824Z,15.07
2019-05-21T03:13:29.982Z,20.33
2019-05-21T03:16:00.009Z,18.57
2019-05-21T03:18:30.075Z,18.47
2019-05-21T03:21:00.247Z,19.73
2019-05-21T03:23:30.414Z,17.57
2019-05-21T03:26:00.486Z,22.77
2019-05-21T03:28:30.545Z,18.80
2019-05-21T03:31:00.716Z,15.63
2019-05-21T03:33:30.865Z,15.40
2019-05-21T03:36:00.978Z,19.63
2019-05-21T03:38:31.069Z,17.27
2019-05-21T03:41:01.217Z,17.57
2019-05-21T03:43:31.279Z,16.43
2019-05-21T03:46:01.395Z,19.47
2019-05-21T03:48:31.486Z,17.67
2019-05-21T03:51:01.732Z,22.97
2019-05-21T03:53:31.822Z,23.03
2019-05-21T03:56:01.913Z,19.93
2019-05-21T03:58:32.015Z,20.23
2019-05-21T04:01:02.093Z,21.60
2019-05-21T04:03:32.216Z,21.03
2019-05-21T04:06:02.365Z,20.67
2019-05-21T04:08:32.445Z,19.23
2019-05-21T04:11:02.605Z,23.13
2019-05-21T04:13:32.941Z,20.70
2019-05-21T04:16:12.594Z,23.37
2019-05-21T04:18:50.308Z,18.17
2019-05-21T04:21:20.661Z,28.23
2019-05-21T04:23:50.736Z,17.47
2019-05-21T04:26:20.858Z,18.40
2019-05-21T04:28:50.990Z,23.00
2019-05-21T04:31:21.069Z,23.07
2019-05-21T04:33:51.169Z,27.70
2019-05-21T04:36:21.263Z,22.20
2019-05-21T04:38:51.340Z,21.63
2019-05-21T04:41:21.437Z,27.60
2019-05-21T04:43:51.521Z,26.67
2019-05-21T04:46:21.751Z,27.83
2019-05-21T04:48:51.805Z,25.13
2019-05-21T04:51:21.870Z,22.80
2019-05-21T04:53:51.943Z,26.47
2019-05-21T04:56:22.041Z,19.90
2019-05-21T04:58:52.142Z,23.87
2019-05-21T05:01:22.232Z,23.30
2019-05-21T05:03:52.330Z,30.53
2019-05-21T05:06:22.432Z,23.17
2019-05-21T05:08:55.542Z,32.13
2019-05-21T05:11:25.634Z,23.90
2019-05-21T05:13:55.810Z,27.27
2019-05-21T05:16:39.170Z,26.03
2019-05-21T05:19:09.268Z,26.63
2019-05-21T05:21:39.480Z,26.17
2019-05-21T05:24:09.564Z,30.13
2019-05-21T05:26:39.653Z,23.83
2019-05-21T05:29:09.736Z,28.63
2019-05-21T05:31:39.852Z,30.60
2019-05-21T05:34:09.969Z,24.83
2019-05-21T05:36:40.138Z,24.43
2019-05-21T05:39:10.181Z,31.37
2019-05-21T05:41:41.094Z,19.37
2019-05-21T05:44:11.195Z,25.73
2019-05-21T05:46:41.333Z,24.33
2019-05-21T05:49:16.960Z,28.37
2019-05-21T05:51:47.072Z,26.90
2019-05-21T05:54:17.282Z,24.33
2019-05-21T05:56:47.379Z,24.87
2019-05-21T05:59:17.497Z,28.97
2019-05-21T06:01:47.584Z,37.17
2019-05-21T06:04:17.692Z,33.33
2019-05-21T06:06:47.785Z,26.70
2019-05-21T06:09:17.875Z,29.30
2019-05-21T06:11:47.980Z,25.20
2019-05-21T06:14:18.056Z,37.70
2019-05-21T06:16:48.226Z,28.70
2019-05-21T06:19:18.306Z,28.57
2019-05-21T06:21:48.420Z,28.07
2019-05-21T06:24:18.509Z,38.33
2019-05-21T06:26:48.623Z,27.77
2019-05-21T06:29:18.840Z,28.23
2019-05-21T06:31:48.944Z,30.87
2019-05-21T06:34:19.094Z,23.27
2019-05-21T06:36:49.212Z,30.70
2019-05-21T06:39:19.375Z,28.90
2019-05-21T06:41:49.472Z,27.43
2019-05-21T06:44:19.577Z,28.40
2019-05-21T06:46:49.719Z,30.77
2019-05-21T06:49:19.785Z,35.03
2019-05-21T06:51:49.889Z,30.17
2019-05-21T06:54:19.996Z,27.23
2019-05-21T06:56:50.065Z,31.00
2019-05-21T06:59:20.163Z,26.77
2019-05-21T07:01:50.244Z,25.57
2019-05-21T07:04:20.341Z,34.33
2019-05-21T07:06:50.460Z,30.27
2019-05-21T07:09:20.518Z,37.90
2019-05-21T07:11:50.687Z,34.57
2019-05-21T07:14:20.758Z,27.13
2019-05-21T07:16:50.923Z,28.13
2019-05-21T07:19:21.061Z,28.73
2019-05-21T07:21:51.174Z,32.37
2019-05-21T07:24:21.267Z,28.13
2019-05-21T07:26:51.368Z,26.87
2019-05-21T07:29:21.441Z,28.03
2019-05-21T07:31:51.570Z,25.37
2019-05-21T07:34:21.660Z,30.07
2019-05-21T07:36:51.780Z,27.57
2019-05-21T07:39:21.949Z,31.50
2019-05-21T07:41:52.047Z,31.73
2019-05-21T07:44:22.159Z,34.73
2019-05-21T07:46:52.296Z,28.23
2019-05-21T07:49:22.406Z,28.50
2019-05-21T07:51:52.525Z,29.00
2019-05-21T07:54:22.625Z,27.80
2019-05-21T07:56:52.713Z,30.70
2019-05-21T07:59:22.807Z,31.37
2019-05-21T08:01:52.909Z,28.27
2019-05-21T08:04:22.973Z,30.30
2019-05-21T08:06:53.151Z,29.27
2019-05-21T08:09:23.233Z,30.37
2019-05-21T08:11:53.326Z,33.93
2019-05-21T08:14:23.405Z,31.50
2019-05-21T08:16:53.542Z,31.33
2019-05-21T08:19:23.605Z,27.23
2019-05-21T08:21:53.717Z,31.10
2019-05-21T08:24:23.912Z,36.47
2019-05-21T08:26:53.988Z,31.10
2019-05-21T08:29:24.101Z,26.77
2019-05-21T08:31:54.182Z,28.73
2019-05-21T08:34:24.359Z,28.33
2019-05-21T08:36:54.455Z,32.27
2019-05-21T08:39:28.876Z,24.97
2019-05-21T08:41:56.397Z,22.40
2019-05-21T08:44:26.525Z,27.80
2019-05-21T08:46:56.634Z,21.27
2019-05-21T08:49:26.736Z,24.40
2019-05-21T08:51:56.802Z,21.33
2019-05-21T08:54:44.572Z,20.70
2019-05-21T08:57:14.664Z,30.47
2019-05-21T08:59:44.864Z,19.57
2019-05-21T09:02:14.963Z,20.33
2019-05-21T09:04:46.626Z,24.70
2019-05-21T09:07:16.955Z,21.67
2019-05-21T09:09:50.693Z,22.27
2019-05-21T09:12:18.892Z,22.07
2019-05-21T09:14:49.011Z,20.83
2019-05-21T09:17:19.127Z,20.43
2019-05-21T09:19:49.252Z,21.27
2019-05-21T09:22:19.329Z,19.87
2019-05-21T09:24:49.453Z,17.20
2019-05-21T09:27:19.557Z,16.67
2019-05-21T09:29:49.698Z,21.10
2019-05-21T09:32:19.779Z,18.70
2019-05-21T09:34:49.951Z,21.93
2019-05-21T09:37:20.641Z,20.43
2019-05-21T09:39:50.954Z,23.10
2019-05-21T09:42:21.044Z,16.70
2019-05-21T09:44:51.152Z,17.27
2019-05-21T09:47:21.223Z,16.27
2019-05-21T09:49:51.337Z,16.57
2019-05-21T09:52:21.401Z,17.03
2019-05-21T09:54:51.637Z,17.83
2019-05-21T09:57:28.903Z,14.70
2019-05-21T10:00:07.593Z,17.83
2019-05-21T10:02:37.686Z,17.93
2019-05-21T10:05:08.077Z,12.73
2019-05-21T10:07:40.534Z,20.93
2019-05-21T10:10:10.126Z,15.10
2019-05-21T10:12:40.211Z,17.67
2019-05-21T10:15:10.328Z,17.10
2019-05-21T10:17:40.404Z,19.07
2019-05-21T10:20:10.590Z,14.50
2019-05-21T10:22:40.651Z,18.37
2019-05-21T10:25:10.864Z,16.63
2019-05-21T10:27:40.935Z,15.33
2019-05-21T10:30:11.243Z,18.73
2019-05-21T10:32:41.343Z,15.97
2019-05-21T10:35:11.640Z,16.50
2019-05-21T10:37:53.945Z,15.13
2019-05-21T10:40:13.712Z,19.97
2019-05-21T10:42:43.815Z,18.30
2019-05-21T10:45:14.132Z,19.10
2019-05-21T10:47:44.216Z,17.23
2019-05-21T10:50:14.806Z,18.97
2019-05-21T10:52:44.920Z,18.70
2019-05-21T10:55:16.104Z,17.87
2019-05-21T10:57:46.988Z,19.43
2019-05-21T11:00:23.053Z,19.10
2019-05-21T11:02:57.461Z,21.83
2019-05-21T11:05:31.818Z,18.00
2019-05-21T11:08:22.899Z,17.03
2019-05-21T11:10:33.816Z,20.57
2019-05-21T11:13:04.000Z,18.30
2019-05-21T11:15:34.072Z,13.67
2019-05-21T11:18:12.153Z,15.57
2019-05-21T11:20:36.047Z,15.27
2019-05-21T11:23:06.157Z,27.53
2019-05-21T11:25:36.226Z,19.83
2019-05-21T11:28:06.552Z,21.00
2019-05-21T11:30:36.677Z,16.77
2019-05-21T11:33:07.404Z,17.63
2019-05-21T11:35:37.621Z,19.63
2019-05-21T11:38:07.715Z,19.73
2019-05-21T11:40:37.807Z,23.70
2019-05-21T11:43:08.037Z,21.37
2019-05-21T11:45:38.128Z,27.10
2019-05-21T11:48:08.230Z,26.77
2019-05-21T11:50:38.301Z,20.57
2019-05-21T11:53:08.436Z,22.30
2019-05-21T11:55:38.507Z,25.13
2019-05-21T11:58:08.599Z,23.03
2019-05-21T12:00:38.738Z,25.00
2019-05-21T12:03:08.846Z,21.40
2019-05-21T12:05:38.936Z,24.73
2019-05-21T12:08:09.043Z,22.70
2019-05-21T12:10:39.156Z,20.40
2019-05-21T12:13:09.529Z,28.73
2019-05-21T12:15:39.596Z,24.20
2019-05-21T12:18:09.777Z,24.13
2019-05-21T12:20:40.046Z,24.67
2019-05-21T12:23:10.204Z,29.87
2019-05-21T12:25:40.327Z,25.13
2019-05-21T12:28:11.216Z,26.97
2019-05-21T12:30:41.844Z,21.93
2019-05-21T12:33:37.428Z,25.30
2019-05-21T12:36:08.544Z,24.40
2019-05-21T12:39:14.365Z,26.03
2019-05-21T12:41:38.809Z,28.47
2019-05-21T12:44:08.939Z,24.20
2019-05-21T12:46:39.042Z,21.07
2019-05-21T12:49:09.192Z,23.30
2019-05-21T12:51:39.371Z,22.93
2019-05-21T12:54:09.523Z,27.40
2019-05-21T12:56:40.869Z,22.37
2019-05-21T12:59:11.409Z,19.43
2019-05-21T13:01:47.883Z,21.40
2019-05-21T13:04:18.059Z,25.60
2019-05-21T13:06:48.182Z,26.60
2019-05-21T13:09:32.288Z,23.63
2019-05-21T13:11:50.312Z,24.37
2019-05-21T13:14:20.711Z,20.13
2019-05-21T13:16:51.104Z,21.37
2019-05-21T13:19:21.412Z,26.50
2019-05-21T13:21:51.587Z,24.10
2019-05-21T13:24:21.753Z,22.63
2019-05-21T13:26:51.873Z,22.17
2019-05-21T13:29:22.131Z,27.43
2019-05-21T13:31:52.293Z,24.60
2019-05-21T13:34:22.416Z,20.40
2019-05-21T13:36:52.625Z,23.83
2019-05-21T13:39:25.666Z,25.37
2019-05-21T13:41:55.543Z,24.67
2019-05-21T13:44:25.818Z,28.63
2019-05-21T13:46:55.964Z,26.83
2019-05-21T13:49:26.091Z,26.30
2019-05-21T13:51:56.483Z,26.27
2019-05-21T13:54:26.654Z,31.57
2019-05-21T13:56:57.078Z,27.87
2019-05-21T13:59:27.448Z,27.50
2019-05-21T14:01:57.685Z,22.53
2019-05-21T14:04:27.845Z,27.30
2019-05-21T14:06:58.062Z,24.37
2019-05-21T14:09:31.228Z,28.17
2019-05-21T14:12:01.467Z,26.60
2019-05-21T14:14:40.830Z,24.97
2019-05-21T14:17:11.155Z,24.70
2019-05-21T14:19:41.343Z,25.30
2019-05-21T14:22:11.521Z,36.73
2019-05-21T14:24:41.836Z,30.93
2019-05-21T14:27:11.999Z,24.43
2019-05-21T14:29:42.179Z,28.00
2019-05-21T14:32:12.421Z,26.27
2019-05-21T14:34:42.591Z,29.03
2019-05-21T14:37:12.721Z,21.97
2019-05-21T14:39:42.960Z,35.07
2019-05-21T14:42:13.143Z,40.17
2019-05-21T14:44:43.265Z,29.87
2019-05-21T14:47:13.409Z,35.67
2019-05-21T14:49:43.577Z,34.50
2019-05-21T14:52:13.817Z,34.80
2019-05-21T14:54:43.963Z,37.60
2019-05-21T14:57:14.104Z,31.87
2019-05-21T14:59:44.301Z,32.13
2019-05-21T15:02:14.409Z,27.53
2019-05-21T15:04:45.058Z,31.47
2019-05-21T15:07:15.782Z,27.83
2019-05-21T15:09:45.908Z,37.87
2019-05-21T15:12:16.530Z,31.37
2019-05-21T15:14:46.867Z,35.53
2019-05-21T15:17:17.229Z,28.03
2019-05-21T15:19:49.970Z,31.90
2019-05-21T15:22:20.039Z,27.23
2019-05-21T15:24:50.413Z,26.90
2019-05-21T15:27:20.745Z,30.50
2019-05-21T15:29:50.878Z,25.37
2019-05-21T15:32:20.998Z,21.10
2019-05-21T15:34:51.603Z,23.97
2019-05-21T15:37:21.854Z,30.73
2019-05-21T15:39:52.199Z,26.50
2019-05-21T15:42:22.350Z,27.13
2019-05-21T15:44:52.605Z,24.13
2019-05-21T15:47:22.770Z,24.97
2019-05-21T15:49:52.997Z,22.23
2019-05-21T15:52:23.384Z,28.07
2019-05-21T15:54:53.545Z,24.50
2019-05-21T15:57:24.099Z,22.27
2019-05-21T15:59:54.357Z,26.00
2019-05-21T16:02:24.888Z,25.63
2019-05-21T16:04:55.678Z,22.90
2019-05-21T16:07:26.546Z,22.70
2019-05-21T16:09:57.295Z,21.33
2019-05-21T16:12:27.859Z,20.87
2019-05-21T16:14:58.112Z,23.07
2019-05-21T16:17:28.242Z,22.83
2019-05-21T16:19:58.377Z,16.70
2019-05-21T16:22:28.507Z,20.07
2019-05-21T16:24:59.074Z,25.17
2019-05-21T16:27:29.312Z,23.43
2019-05-21T16:29:59.555Z,23.10
2019-05-21T16:32:30.115Z,20.97
2019-05-21T16:35:00.761Z,17.50
2019-05-21T16:37:31.029Z,17.40
2019-05-21T16:40:01.731Z,12.97
2019-05-21T16:42:32.018Z,15.23
2019-05-21T16:45:06.186Z,18.03
2019-05-21T16:47:46.150Z,15.73
2019-05-21T16:50:13.514Z,17.50
2019-05-21T16:52:43.814Z,22.27
2019-05-21T16:55:14.839Z,16.63
2019-05-21T16:57:45.026Z,22.33
2019-05-21T17:00:17.405Z,21.37
2019-05-21T17:02:47.698Z,32.97
2019-05-21T17:05:17.839Z,17.77
2019-05-21T17:07:47.974Z,19.80
2019-05-21T17:10:19.672Z,16.70
2019-05-21T17:12:49.951Z,12.27
2019-05-21T17:15:20.225Z,17.43
2019-05-21T17:17:50.389Z,18.60
2019-05-21T17:20:20.715Z,15.50
2019-05-21T17:22:51.606Z,16.80
2019-05-21T17:25:21.831Z,18.50
2019-05-21T17:27:52.036Z,16.60
2019-05-21T17:30:22.466Z,17.50
2019-05-21T17:32:54.026Z,16.23
2019-05-21T17:35:24.186Z,19.83
2019-05-21T17:37:54.737Z,14.23
2019-05-21T17:40:25.301Z,18.53
2019-05-21T17:42:55.461Z,16.87
2019-05-21T17:45:25.890Z,23.20
2019-05-21T17:47:56.081Z,13.77
2019-05-21T17:50:26.290Z,16.27
2019-05-21T17:52:56.534Z,11.07
2019-05-21T17:55:26.809Z,17.73
2019-05-21T17:57:57.056Z,15.00
2019-05-21T18:00:44.810Z,19.33
2019-05-21T18:03:15.118Z,14.47
2019-05-21T18:05:47.932Z,14.97
2019-05-21T18:08:18.606Z,14.47
2019-05-21T18:10:48.835Z,18.90
2019-05-21T18:13:19.672Z,14.27
2019-05-21T18:15:50.231Z,14.17
2019-05-21T18:18:20.969Z,15.83
2019-05-21T18:20:51.331Z,11.97
2019-05-21T18:23:21.485Z,15.80
2019-05-21T18:25:51.819Z,14.50
2019-05-21T18:28:21.976Z,13.27
2019-05-21T18:30:52.425Z,16.03
2019-05-21T18:33:23.255Z,10.03
2019-05-21T18:35:53.426Z,17.30
2019-05-21T18:38:23.609Z,14.17
2019-05-21T18:40:53.712Z,14.93
2019-05-21T18:43:26.373Z,13.33
2019-05-21T18:45:56.524Z,12.07
2019-05-21T18:48:29.364Z,11.90
2019-05-21T18:50:59.611Z,10.60
2019-05-21T18:53:29.845Z,10.97
2019-05-21T18:56:02.274Z,11.07
2019-05-21T18:58:41.515Z,9.80
2019-05-21T19:01:13.205Z,9.23
2019-05-21T19:03:43.669Z,13.63
2019-05-21T19:06:13.851Z,9.50
2019-05-21T19:08:45.320Z,9.43
2019-05-21T19:11:16.343Z,17.80
2019-05-21T19:13:46.578Z,9.73
2019-05-21T19:16:16.974Z,9.80
2019-05-21T19:18:47.273Z,8.80
2019-05-21T19:21:17.438Z,12.00
2019-05-21T19:23:47.729Z,9.17
2019-05-21T19:26:17.985Z,9.20
2019-05-21T19:28:50.804Z,6.27
2019-05-21T19:31:21.204Z,7.93
2019-05-21T19:33:51.424Z,14.03
2019-05-21T19:36:22.678Z,12.50
2019-05-21T19:38:54.448Z,10.90
2019-05-21T19:41:24.682Z,12.27
2019-05-21T19:43:54.949Z,10.67
2019-05-21T19:46:55.587Z,13.27
2019-05-21T19:49:25.797Z,13.37
2019-05-21T19:51:56.109Z,9.60
2019-05-21T19:54:48.729Z,9.90
2019-05-21T19:57:19.890Z,9.43
2019-05-21T19:59:51.882Z,10.00
2019-05-21T20:02:23.023Z,12.47
2019-05-21T20:05:07.145Z,18.93
2019-05-21T20:07:37.690Z,15.63
2019-05-21T20:10:35.096Z,19.30
2019-05-21T20:13:31.812Z,12.37
2019-05-21T20:15:53.503Z,12.57
2019-05-21T20:18:28.730Z,9.23
2019-05-21T20:21:01.676Z,14.43
2019-05-21T20:23:33.930Z,9.87
2019-05-21T20:26:06.244Z,12.07
2019-05-21T20:28:40.883Z,10.23
2019-05-21T20:31:11.455Z,9.57
2019-05-21T20:33:41.668Z,9.03
2019-05-21T20:36:40.930Z,9.77
2019-05-21T20:39:14.815Z,7.20
2019-05-21T20:41:47.423Z,8.63
2019-05-21T20:44:18.112Z,9.90
2019-05-21T20:46:49.158Z,7.07
2019-05-21T20:49:19.868Z,10.00
2019-05-21T20:52:18.225Z,9.47
2019-05-21T20:54:42.907Z,10.57
2019-05-21T20:57:13.614Z,13.23
2019-05-21T20:59:43.774Z,11.97
2019-05-21T21:02:14.814Z,14.20
2019-05-21T21:04:45.131Z,14.63
2019-05-21T21:07:16.192Z,14.80
2019-05-21T21:09:47.170Z,12.03
2019-05-21T21:12:18.782Z,8.93
2019-05-21T21:14:57.402Z,16.03
2019-05-21T21:17:27.996Z,11.33
2019-05-21T21:19:59.088Z,13.87
2019-05-21T21:22:34.218Z,13.53
2019-05-21T21:25:05.073Z,13.77
2019-05-21T21:27:36.306Z,12.43
2019-05-21T21:30:37.838Z,11.90
2019-05-21T21:32:56.406Z,11.97
2019-05-21T21:35:26.858Z,12.47
2019-05-21T21:37:57.074Z,11.90
2019-05-21T21:40:27.221Z,14.73
2019-05-21T21:45:54.449Z,11.30
2019-05-21T21:48:24.896Z,10.13
2019-05-21T21:50:55.121Z,11.77
2019-05-21T21:53:37.709Z,11.53
2019-05-21T21:56:11.032Z,7.87
2019-05-21T21:59:10.595Z,12.50
2019-05-21T22:01:59.335Z,13.30
2019-05-21T22:04:36.475Z,14.50
2019-05-21T22:07:06.868Z,13.80
2019-05-21T22:09:38.726Z,10.33
2019-05-21T22:12:26.905Z,7.17
2019-05-21T22:15:01.987Z,10.77
2019-05-21T22:17:33.182Z,10.97
2019-05-21T22:20:04.375Z,8.67
2019-05-21T22:22:37.530Z,10.53
2019-05-21T22:25:08.122Z,9.73
2019-05-21T22:27:38.294Z,8.67
2019-05-21T22:30:08.883Z,10.10
2019-05-21T22:32:40.509Z,9.77
2019-05-21T22:35:14.585Z,9.83
2019-05-21T22:37:44.712Z,8.87
2019-05-21T22:40:15.544Z,11.40
2019-05-21T22:42:47.043Z,9.30
2019-05-21T22:45:18.373Z,9.77
2019-05-21T22:47:48.586Z,11.53
2019-05-21T22:50:18.887Z,11.40
2019-05-21T22:52:49.012Z,10.37
2019-05-21T22:55:20.768Z,17.13
2019-05-21T22:57:50.863Z,16.83
2019-05-21T23:00:21.446Z,14.23
2019-05-21T23:02:51.584Z,14.37
2019-05-21T23:05:23.346Z,16.33
2019-05-21T23:07:53.490Z,18.50
2019-05-21T23:10:23.832Z,18.07
2019-05-21T23:12:54.018Z,18.67
2019-05-21T23:15:25.660Z,19.43
2019-05-21T23:17:56.252Z,16.50
2019-05-21T23:20:30.220Z,20.63
2019-05-21T23:23:00.443Z,22.20
2019-05-21T23:25:31.607Z,20.30
2019-05-21T23:28:01.723Z,19.13
2019-05-21T23:30:31.827Z,20.67
2019-05-21T23:33:01.932Z,22.03
2019-05-21T23:35:32.749Z,24.97
2019-05-21T23:38:03.412Z,18.30
2019-05-21T23:40:34.714Z,17.63
2019-05-21T23:43:10.445Z,19.20
2019-05-21T23:45:43.376Z,14.07
2019-05-21T23:48:14.473Z,18.17
2019-05-21T23:50:44.598Z,16.63
2019-05-21T23:53:16.017Z,17.57
2019-05-21T23:55:47.129Z,20.03
2019-05-21T23:58:17.913Z,12.43
